Owasso, Oklahoma
Current Conditions -  °F | °C
As of 6:53 PM on Tuesday 21 Oct 2014 (Local Time) from KTUL Reporting Station
Clear Clear  
Wind Chill: 73°   Ceiling: Unl
Heat Index: 73°   Visibility: 10mi
Dew Point: 62°   Wind: 6mph
Humidity: 68%   Direction: 110°ESE
Pressure: 30.01"   Gusts: NA
Location:  36.26°N, 95.85°W
Report Text: KTUL 212353Z 11005KT 10SM CLR 23/17 A3001 RMK AO2 SLP157 T02280167 10278 20228 55002
Loading
Personal Weather Stations






























Interactive Weather Map
Tropical Storm Tracking
New forecast layout! Learn more

10-Day Weather Forecast

Advertisements
Track Severe Weather on mobile